createdAt,value
2017-07-15T00:01:51.894Z,79.40
2017-07-15T00:04:18.863Z,79.40
2017-07-15T00:06:46.177Z,78.70
2017-07-15T00:09:13.206Z,78.70
2017-07-15T00:11:40.107Z,78.80
2017-07-15T00:14:07.000Z,78.50
2017-07-15T00:16:33.995Z,77.90
2017-07-15T00:19:00.950Z,78.00
2017-07-15T00:21:28.302Z,77.20
2017-07-15T00:23:55.630Z,77.20
2017-07-15T00:26:22.613Z,77.20
2017-07-15T00:28:49.894Z,77.20
2017-07-15T00:31:16.910Z,77.20
2017-07-15T00:33:44.199Z,77.10
2017-07-15T00:36:11.216Z,77.10
2017-07-15T00:38:38.570Z,77.50
2017-07-15T00:41:05.926Z,77.50
2017-07-15T00:43:33.241Z,77.50
2017-07-15T00:46:00.224Z,77.50
2017-07-15T00:48:27.547Z,77.40
2017-07-15T00:50:54.524Z,77.40
2017-07-15T00:53:21.418Z,77.30
2017-07-15T00:55:48.352Z,77.40
2017-07-15T00:58:15.242Z,77.30
2017-07-15T01:00:42.201Z,77.20
2017-07-15T01:03:09.555Z,77.50
2017-07-15T01:05:36.848Z,77.50
2017-07-15T01:08:03.765Z,77.50
2017-07-15T01:10:31.102Z,77.70
2017-07-15T01:12:58.054Z,77.70
2017-07-15T01:15:25.015Z,77.90
2017-07-15T01:17:51.946Z,77.90
2017-07-15T01:20:18.870Z,78.00
2017-07-15T01:22:45.834Z,78.00
2017-07-15T01:25:12.792Z,78.10
2017-07-15T01:27:40.143Z,78.10
2017-07-15T01:30:07.465Z,78.50
2017-07-15T01:32:34.350Z,78.50
2017-07-15T01:35:01.701Z,78.40
2017-07-15T01:37:29.014Z,78.30
2017-07-15T01:39:55.902Z,78.30
2017-07-15T01:42:23.219Z,78.40
2017-07-15T01:44:50.142Z,78.40
2017-07-15T01:47:17.026Z,78.20
2017-07-15T01:49:43.992Z,78.30
2017-07-15T01:52:11.279Z,78.30
2017-07-15T01:54:38.167Z,78.30
2017-07-15T01:57:05.382Z,77.80
2017-07-15T01:59:32.307Z,77.90
2017-07-15T02:01:59.586Z,78.20
2017-07-15T02:04:26.529Z,78.20
2017-07-15T02:06:53.534Z,78.50
2017-07-15T02:09:20.814Z,78.10
2017-07-15T02:11:47.702Z,78.10
2017-07-15T02:14:14.683Z,78.00
2017-07-15T02:16:42.030Z,77.80
2017-07-15T02:19:08.962Z,77.80
2017-07-15T02:21:35.842Z,77.50
2017-07-15T02:24:03.131Z,77.80
2017-07-15T02:26:30.131Z,77.80
2017-07-15T02:28:57.078Z,77.80
2017-07-15T02:31:24.426Z,77.40
2017-07-15T02:33:51.311Z,77.40
2017-07-15T02:36:18.206Z,77.50
2017-07-15T02:38:45.175Z,77.70
2017-07-15T02:41:12.463Z,78.20
2017-07-15T02:43:39.342Z,78.20
2017-07-15T02:46:06.270Z,78.40
2017-07-15T02:48:33.153Z,78.50
2017-07-15T02:51:00.103Z,78.20
2017-07-15T02:53:27.053Z,78.20
2017-07-15T02:55:54.005Z,78.00
2017-07-15T02:58:21.359Z,77.40
2017-07-15T03:00:48.715Z,77.30
2017-07-15T03:03:16.033Z,77.40
2017-07-15T03:05:42.926Z,77.40
2017-07-15T03:08:10.269Z,77.30
2017-07-15T03:10:37.198Z,77.30
2017-07-15T03:13:04.166Z,77.30
2017-07-15T03:15:31.514Z,77.10
2017-07-15T03:17:58.455Z,77.10
2017-07-15T03:20:25.342Z,77.20
2017-07-15T03:22:52.225Z,77.50
2017-07-15T03:25:19.147Z,77.60
2017-07-15T03:27:46.047Z,77.50
2017-07-15T03:30:13.326Z,77.60
2017-07-15T03:32:40.246Z,77.60
2017-07-15T03:35:07.602Z,77.60
2017-07-15T03:37:34.881Z,77.80
2017-07-15T03:40:01.793Z,77.80
2017-07-15T03:42:28.743Z,77.80
2017-07-15T03:44:55.630Z,78.10
2017-07-15T03:47:22.633Z,78.00
2017-07-15T03:49:49.526Z,78.00
2017-07-15T03:52:17.406Z,78.00
2017-07-15T03:54:44.287Z,77.70
2017-07-15T03:57:11.252Z,77.90
2017-07-15T03:59:38.601Z,77.50
2017-07-15T04:02:05.952Z,77.20
2017-07-15T04:04:32.918Z,77.10
2017-07-15T04:07:00.360Z,76.90
2017-07-15T04:09:27.251Z,76.90
2017-07-15T04:11:54.149Z,76.60
2017-07-15T04:14:21.094Z,76.60
2017-07-15T04:16:48.038Z,76.20
2017-07-15T04:19:14.990Z,76.10
2017-07-15T04:21:42.354Z,76.20
2017-07-15T04:24:09.629Z,75.90
2017-07-15T04:26:36.510Z,75.90
2017-07-15T04:29:03.445Z,75.50
2017-07-15T04:31:30.431Z,75.80
2017-07-15T04:33:57.341Z,76.20
2017-07-15T04:36:24.268Z,75.60
2017-07-15T04:38:51.278Z,75.60
2017-07-15T04:41:18.638Z,76.20
2017-07-15T04:43:45.925Z,76.60
2017-07-15T04:46:12.842Z,76.60
2017-07-15T04:48:40.124Z,77.20
2017-07-15T04:51:07.015Z,77.20
2017-07-15T04:53:33.985Z,76.90
2017-07-15T04:56:01.338Z,76.20
2017-07-15T04:58:28.623Z,76.90
2017-07-15T05:00:55.638Z,76.90
2017-07-15T05:03:22.592Z,77.60
2017-07-15T05:05:49.937Z,77.50
2017-07-15T05:08:16.886Z,77.50
2017-07-15T05:10:43.837Z,77.80
2017-07-15T05:13:11.189Z,77.30
2017-07-15T05:15:38.547Z,76.60
2017-07-15T05:18:05.906Z,76.20
2017-07-15T05:20:33.353Z,75.00
2017-07-15T05:23:00.306Z,75.00
2017-07-15T05:25:27.260Z,75.50
2017-07-15T05:27:54.610Z,75.20
2017-07-15T05:30:21.558Z,75.20
2017-07-15T05:32:48.747Z,74.70
2017-07-15T05:35:15.658Z,74.50
2017-07-15T05:37:43.022Z,73.10
2017-07-15T05:40:10.347Z,73.00
2017-07-15T05:42:37.242Z,73.00
2017-07-15T05:45:04.138Z,73.00
2017-07-15T05:47:31.107Z,73.10
2017-07-15T05:49:58.497Z,72.80
2017-07-15T05:52:25.402Z,72.80
2017-07-15T05:54:52.382Z,72.20
2017-07-15T05:57:19.299Z,71.90
2017-07-15T05:59:46.655Z,72.00
2017-07-15T06:02:13.990Z,71.90
2017-07-15T06:04:40.969Z,71.90
2017-07-15T06:07:08.315Z,72.50
2017-07-15T06:09:35.622Z,72.30
2017-07-15T06:12:02.544Z,72.30
2017-07-15T06:14:29.430Z,72.20
2017-07-15T06:16:56.398Z,71.80
2017-07-15T06:19:23.328Z,72.10
2017-07-15T06:21:50.301Z,72.20
2017-07-15T06:24:17.653Z,73.50
2017-07-15T06:26:45.011Z,73.50
2017-07-15T06:29:12.320Z,72.90
2017-07-15T06:31:39.213Z,72.90
2017-07-15T06:34:06.521Z,72.90
2017-07-15T06:36:33.410Z,72.90
2017-07-15T06:39:00.767Z,72.20
2017-07-15T06:41:28.118Z,72.90
2017-07-15T06:43:55.069Z,72.90
2017-07-15T06:46:22.381Z,72.90
2017-07-15T06:48:49.319Z,72.90
2017-07-15T06:51:16.209Z,73.20
2017-07-15T06:53:43.102Z,73.00
2017-07-15T06:56:10.022Z,73.20
2017-07-15T06:58:37.362Z,72.90
2017-07-15T07:01:04.714Z,72.20
2017-07-15T07:03:32.046Z,71.20
2017-07-15T07:05:59.003Z,71.20
2017-07-15T07:08:26.323Z,70.80
2017-07-15T07:10:53.299Z,70.80
2017-07-15T07:13:20.255Z,70.50
2017-07-15T07:15:47.648Z,71.20
2017-07-15T07:18:14.563Z,71.20
2017-07-15T07:20:41.921Z,71.10
2017-07-15T07:23:09.245Z,71.40
2017-07-15T07:25:36.166Z,71.40
2017-07-15T07:28:03.696Z,71.00
2017-07-15T07:30:30.708Z,71.10
2017-07-15T07:32:58.087Z,69.80
2017-07-15T07:35:25.375Z,69.20
2017-07-15T07:37:52.293Z,69.20
2017-07-15T07:40:19.224Z,69.10
2017-07-15T07:42:46.505Z,69.00
2017-07-15T07:45:13.825Z,69.10
2017-07-15T07:47:40.819Z,68.80
2017-07-15T07:50:07.718Z,68.40
2017-07-15T07:52:34.812Z,68.80
2017-07-15T07:55:01.702Z,68.30
2017-07-15T07:57:28.662Z,67.10
2017-07-15T07:59:55.614Z,67.60
2017-07-15T08:02:22.939Z,70.00
2017-07-15T08:04:49.822Z,70.00
2017-07-15T08:07:17.162Z,69.20
2017-07-15T08:09:44.094Z,69.10
2017-07-15T08:12:11.100Z,69.00
2017-07-15T08:14:38.018Z,69.00
2017-07-15T08:17:04.913Z,68.90
2017-07-15T08:19:31.907Z,69.30
2017-07-15T08:21:59.258Z,69.20
2017-07-15T08:24:26.610Z,69.50
2017-07-15T08:26:53.554Z,69.50
2017-07-15T08:29:20.503Z,68.60
2017-07-15T08:31:47.387Z,68.60
2017-07-15T08:34:14.269Z,68.20
2017-07-15T08:36:41.221Z,67.70
2017-07-15T08:39:08.165Z,67.90
2017-07-15T08:41:35.058Z,68.30
2017-07-15T08:44:01.991Z,67.90
2017-07-15T08:46:29.317Z,67.80
2017-07-15T08:48:56.206Z,67.80
2017-07-15T08:51:23.092Z,68.00
2017-07-15T08:53:50.074Z,67.70
2017-07-15T08:56:16.973Z,67.60
2017-07-15T08:58:43.858Z,67.10
2017-07-15T09:01:10.778Z,66.30
2017-07-15T09:03:37.734Z,65.40
2017-07-15T09:06:04.690Z,64.20
2017-07-15T09:08:32.038Z,66.10
2017-07-15T09:10:58.982Z,66.10
2017-07-15T09:13:25.934Z,65.70
2017-07-15T09:15:53.298Z,65.30
2017-07-15T09:18:20.573Z,65.20
2017-07-15T09:20:47.587Z,65.20
2017-07-15T09:23:14.537Z,64.60
2017-07-15T09:25:41.833Z,65.80
2017-07-15T09:28:08.930Z,65.80
2017-07-15T09:30:35.890Z,64.70
2017-07-15T09:33:03.245Z,64.70
2017-07-15T09:35:30.190Z,64.70
2017-07-15T09:37:57.470Z,63.60
2017-07-15T09:40:24.371Z,63.60
2017-07-15T09:42:51.342Z,62.80
2017-07-15T09:45:18.685Z,63.10
2017-07-15T09:47:45.569Z,63.20
2017-07-15T09:50:12.490Z,64.00
2017-07-15T09:52:39.839Z,64.80
2017-07-15T09:55:06.824Z,64.90
2017-07-15T09:57:33.770Z,65.60
2017-07-15T10:00:00.676Z,65.90
2017-07-15T10:02:27.571Z,66.50
2017-07-15T10:04:54.476Z,67.00
2017-07-15T10:07:21.834Z,66.20
2017-07-15T10:09:49.147Z,66.10
2017-07-15T10:12:16.034Z,66.10
2017-07-15T10:14:43.406Z,64.20
2017-07-15T10:17:10.845Z,63.50
2017-07-15T10:19:38.126Z,64.20
2017-07-15T10:22:05.038Z,64.20
2017-07-15T10:24:31.963Z,64.20
2017-07-15T10:26:58.931Z,63.40
2017-07-15T10:29:25.883Z,63.10
2017-07-15T10:31:53.243Z,63.60
2017-07-15T10:34:20.635Z,63.30
2017-07-15T10:36:47.747Z,63.30
2017-07-15T10:39:15.030Z,61.50
2017-07-15T10:41:41.944Z,61.50
2017-07-15T10:44:09.301Z,60.30
2017-07-15T10:46:36.251Z,60.30
2017-07-15T10:49:03.619Z,61.00
2017-07-15T10:51:31.073Z,60.70
2017-07-15T10:53:58.414Z,60.80
2017-07-15T10:56:25.302Z,60.80
2017-07-15T10:58:52.302Z,60.60
2017-07-15T11:01:19.194Z,61.50
2017-07-15T11:03:46.123Z,60.90
2017-07-15T11:06:13.018Z,61.00
2017-07-15T11:08:39.994Z,60.00
2017-07-15T11:11:07.334Z,58.00
2017-07-15T11:13:34.294Z,58.00
2017-07-15T11:16:01.242Z,59.90
2017-07-15T11:18:28.603Z,59.90
2017-07-15T11:20:55.998Z,60.20
2017-07-15T11:23:22.919Z,60.20
2017-07-15T11:25:50.353Z,60.30
2017-07-15T11:28:17.308Z,60.30
2017-07-15T11:30:44.262Z,59.40
2017-07-15T11:33:11.613Z,59.30
2017-07-15T11:35:38.960Z,59.50
2017-07-15T11:38:05.914Z,59.50
2017-07-15T11:40:33.291Z,59.20
2017-07-15T11:43:00.173Z,59.20
2017-07-15T11:45:27.104Z,59.50
2017-07-15T11:47:54.015Z,59.50
2017-07-15T11:50:21.363Z,59.10
2017-07-15T11:52:48.718Z,59.70
2017-07-15T11:55:16.087Z,61.40
2017-07-15T11:57:43.363Z,61.70
2017-07-15T12:00:10.297Z,61.70
2017-07-15T12:02:37.286Z,61.80
2017-07-15T12:05:04.237Z,61.70
2017-07-15T12:07:31.595Z,62.60
2017-07-15T12:09:58.875Z,61.80
2017-07-15T12:12:25.763Z,61.80
2017-07-15T12:14:52.731Z,61.40
2017-07-15T12:17:19.759Z,61.90
2017-07-15T12:19:46.773Z,60.50
2017-07-15T12:22:13.654Z,60.60
2017-07-15T12:24:40.622Z,59.80
2017-07-15T12:27:07.546Z,60.50
2017-07-15T12:29:34.483Z,60.10
2017-07-15T12:32:01.367Z,60.40
2017-07-15T12:34:28.721Z,59.90
2017-07-15T12:36:56.069Z,59.70
2017-07-15T12:39:23.013Z,59.70
2017-07-15T12:41:49.961Z,59.60
2017-07-15T12:44:16.918Z,60.50
2017-07-15T12:46:44.274Z,59.60
2017-07-15T12:49:11.623Z,59.30
2017-07-15T12:51:38.539Z,59.30
2017-07-15T12:54:05.521Z,58.60
2017-07-15T12:56:32.874Z,58.40
2017-07-15T12:59:00.157Z,58.90
2017-07-15T13:01:27.046Z,58.90
2017-07-15T13:03:54.022Z,58.80
2017-07-15T13:06:21.307Z,57.50
2017-07-15T13:08:48.206Z,57.50
2017-07-15T13:11:15.153Z,57.60
2017-07-15T13:13:42.064Z,56.80
2017-07-15T13:16:08.958Z,57.20
2017-07-15T13:18:36.266Z,56.40
2017-07-15T13:21:03.181Z,56.40
2017-07-15T13:23:30.065Z,55.90
2017-07-15T13:25:56.951Z,56.20
2017-07-15T13:28:24.282Z,55.90
2017-07-15T13:30:51.246Z,55.90
2017-07-15T13:33:18.199Z,55.40
2017-07-15T13:35:45.141Z,55.10
2017-07-15T13:38:12.089Z,55.10
2017-07-15T13:40:39.038Z,55.00
2017-07-15T13:43:06.397Z,54.90
2017-07-15T13:45:33.791Z,54.90
2017-07-15T13:48:00.694Z,54.90
2017-07-15T13:50:28.019Z,55.10
2017-07-15T13:52:54.978Z,55.10
2017-07-15T13:55:21.933Z,54.90
2017-07-15T13:57:49.282Z,54.10
2017-07-15T14:00:16.235Z,54.10
2017-07-15T14:02:43.522Z,53.80
2017-07-15T14:05:10.526Z,53.80
2017-07-15T14:07:37.483Z,54.10
2017-07-15T14:10:04.838Z,53.90
2017-07-15T14:12:32.194Z,53.90
2017-07-15T14:14:59.474Z,53.00
2017-07-15T14:17:26.363Z,53.00
2017-07-15T14:19:53.647Z,53.40
2017-07-15T14:22:20.590Z,53.90
2017-07-15T14:24:47.542Z,54.30
2017-07-15T14:27:14.889Z,54.90
2017-07-15T14:29:41.837Z,54.90
2017-07-15T14:32:08.723Z,55.70
2017-07-15T14:34:35.665Z,55.60
2017-07-15T14:37:02.559Z,55.70
2017-07-15T14:39:29.525Z,54.70
2017-07-15T14:41:56.805Z,53.30
2017-07-15T14:44:23.722Z,53.30
2017-07-15T14:46:50.725Z,53.20
2017-07-15T14:49:17.609Z,53.00
2017-07-15T14:51:44.567Z,52.70
2017-07-15T14:54:11.901Z,51.80
2017-07-15T14:56:38.870Z,51.80
2017-07-15T14:59:06.154Z,51.90
2017-07-15T15:01:33.208Z,51.90
2017-07-15T15:04:00.137Z,52.00
2017-07-15T15:06:27.134Z,51.70
2017-07-15T15:08:54.590Z,52.60
2017-07-15T15:11:21.483Z,52.60
2017-07-15T15:13:48.362Z,51.90
2017-07-15T15:16:15.535Z,51.50
2017-07-15T15:18:42.442Z,52.70
2017-07-15T15:21:09.334Z,52.80
2017-07-15T15:23:36.658Z,54.20
2017-07-15T15:26:03.629Z,54.20
2017-07-15T15:28:30.919Z,54.00
2017-07-15T15:30:57.935Z,54.00
2017-07-15T15:33:25.287Z,53.70
2017-07-15T15:35:52.566Z,53.40
2017-07-15T15:38:19.478Z,53.40
2017-07-15T15:40:46.753Z,53.00
2017-07-15T15:43:13.678Z,53.00
2017-07-15T15:45:41.025Z,53.20
2017-07-15T15:48:08.347Z,52.50
2017-07-15T15:50:35.319Z,52.50
2017-07-15T15:53:02.267Z,52.60
2017-07-15T15:55:29.319Z,53.40
2017-07-15T15:57:56.235Z,53.60
2017-07-15T16:00:23.119Z,53.40
2017-07-15T16:02:50.485Z,52.60
2017-07-15T16:05:17.766Z,51.90
2017-07-15T16:07:44.672Z,51.90
2017-07-15T16:10:11.999Z,52.20
2017-07-15T16:12:38.877Z,52.10
2017-07-15T16:15:05.773Z,51.60
2017-07-15T16:17:32.686Z,52.30
2017-07-15T16:19:59.682Z,52.50
2017-07-15T16:22:26.629Z,52.80
2017-07-15T16:24:53.523Z,53.30
2017-07-15T16:27:20.518Z,51.80
2017-07-15T16:29:47.427Z,52.50
2017-07-15T16:32:14.411Z,52.00
2017-07-15T16:34:41.467Z,51.60
2017-07-15T16:37:08.819Z,50.30
2017-07-15T16:39:35.808Z,50.30
2017-07-15T16:42:02.810Z,49.70
2017-07-15T16:44:29.702Z,49.90
2017-07-15T16:46:56.626Z,49.90
2017-07-15T16:49:23.558Z,50.00
2017-07-15T16:51:50.906Z,50.70
2017-07-15T16:54:17.855Z,50.70
2017-07-15T16:56:44.754Z,51.10
2017-07-15T16:59:11.646Z,51.10
2017-07-15T17:01:38.566Z,50.10
2017-07-15T17:04:05.851Z,49.80
2017-07-15T17:06:32.766Z,49.90
2017-07-15T17:08:59.691Z,50.30
2017-07-15T17:11:26.634Z,50.50
2017-07-15T17:13:53.586Z,51.40
2017-07-15T17:16:20.926Z,49.80
2017-07-15T17:18:47.811Z,49.80
2017-07-15T17:21:14.837Z,49.70
2017-07-15T17:23:42.192Z,50.80
2017-07-15T17:26:09.119Z,50.80
2017-07-15T17:28:36.042Z,50.20
2017-07-15T17:31:03.023Z,50.00
2017-07-15T17:33:30.017Z,49.30
2017-07-15T17:35:56.958Z,48.50
2017-07-15T17:38:23.870Z,47.10
2017-07-15T17:40:51.266Z,48.30
2017-07-15T17:43:18.155Z,48.30
2017-07-15T17:45:45.042Z,48.60
2017-07-15T17:48:12.058Z,49.30
2017-07-15T17:50:38.955Z,48.70
2017-07-15T17:53:05.854Z,48.50
2017-07-15T17:55:32.770Z,48.70
2017-07-15T17:57:59.670Z,49.50
2017-07-15T18:00:26.620Z,49.40
2017-07-15T18:02:53.520Z,49.20
2017-07-15T18:05:20.478Z,50.10
2017-07-15T18:07:47.419Z,50.30
2017-07-15T18:10:14.301Z,49.70
2017-07-15T18:12:41.231Z,50.40
2017-07-15T18:15:08.578Z,51.30
2017-07-15T18:17:35.853Z,51.40
2017-07-15T18:20:02.886Z,51.40
2017-07-15T18:22:30.181Z,52.40
2017-07-15T18:24:57.062Z,52.40
2017-07-15T18:27:24.131Z,52.70
2017-07-15T18:29:51.415Z,53.60
2017-07-15T18:32:18.302Z,53.60
2017-07-15T18:34:45.218Z,53.90
2017-07-15T18:37:12.129Z,54.80
2017-07-15T18:39:39.516Z,54.40
2017-07-15T18:42:06.434Z,54.40
2017-07-15T18:44:33.816Z,54.80
2017-07-15T18:47:00.794Z,54.80
2017-07-15T18:49:27.682Z,54.80
2017-07-15T18:51:54.969Z,55.20
2017-07-15T18:54:21.918Z,55.20
2017-07-15T18:56:48.817Z,55.10
2017-07-15T18:59:16.118Z,56.00
2017-07-15T19:01:43.118Z,56.00
2017-07-15T19:04:09.999Z,55.90
2017-07-15T19:06:36.930Z,56.10
2017-07-15T19:09:03.823Z,56.30
2017-07-15T19:11:30.803Z,56.50
2017-07-15T19:13:58.132Z,57.10
2017-07-15T19:16:25.121Z,57.10
2017-07-15T19:18:52.403Z,57.40
2017-07-15T19:21:19.398Z,57.40
2017-07-15T19:23:46.286Z,57.70
2017-07-15T19:26:13.227Z,57.70
2017-07-15T19:28:40.242Z,58.00
2017-07-15T19:31:07.806Z,58.60
2017-07-15T19:33:35.248Z,58.50
2017-07-15T19:36:02.312Z,58.50
2017-07-15T19:38:29.675Z,59.00
2017-07-15T19:40:56.967Z,59.20
2017-07-15T19:43:23.857Z,59.20
2017-07-15T19:45:50.820Z,59.30
2017-07-15T19:48:18.181Z,59.90
2017-07-15T19:50:45.494Z,60.20
2017-07-15T19:53:12.486Z,60.20
2017-07-15T19:55:39.976Z,60.70
2017-07-15T19:58:06.984Z,60.70
2017-07-15T20:00:33.937Z,61.20
2017-07-15T20:03:01.232Z,61.60
2017-07-15T20:05:28.119Z,61.60
2017-07-15T20:07:55.486Z,61.90
2017-07-15T20:10:22.800Z,61.80
2017-07-15T20:12:49.720Z,61.80
2017-07-15T20:15:16.612Z,61.80
2017-07-15T20:17:43.580Z,62.10
2017-07-15T20:20:10.867Z,62.40
2017-07-15T20:22:37.774Z,62.40
2017-07-15T20:25:04.726Z,62.10
2017-07-15T20:27:32.054Z,62.10
2017-07-15T20:29:58.979Z,62.10
2017-07-15T20:32:25.885Z,62.30
2017-07-15T20:34:52.824Z,62.30
2017-07-15T20:37:20.108Z,63.10
2017-07-15T20:39:47.035Z,63.10
2017-07-15T20:42:13.977Z,63.50
2017-07-15T20:44:40.867Z,63.60
2017-07-15T20:47:07.856Z,64.00
2017-07-15T20:49:35.217Z,63.70
2017-07-15T20:52:02.511Z,64.20
2017-07-15T20:54:29.526Z,64.20
2017-07-15T20:56:56.966Z,63.40
2017-07-15T20:59:23.849Z,63.40
2017-07-15T21:01:50.773Z,64.00
2017-07-15T21:04:17.707Z,63.60
2017-07-15T21:06:44.649Z,63.60
2017-07-15T21:09:11.599Z,63.60
2017-07-15T21:11:38.913Z,63.60
2017-07-15T21:14:05.897Z,63.60
2017-07-15T21:16:32.849Z,64.60
2017-07-15T21:19:00.145Z,64.20
2017-07-15T21:21:27.078Z,64.20
2017-07-15T21:23:53.990Z,64.50
2017-07-15T21:26:20.913Z,64.60
2017-07-15T21:28:47.795Z,64.90
2017-07-15T21:31:15.138Z,65.60
2017-07-15T21:33:42.088Z,65.60
2017-07-15T21:36:09.370Z,65.00
2017-07-15T21:38:36.390Z,65.00
2017-07-15T21:41:03.752Z,66.50
2017-07-15T21:43:31.037Z,66.30
2017-07-15T21:45:57.948Z,66.30
2017-07-15T21:48:25.297Z,66.60
2017-07-15T21:50:52.178Z,66.60
2017-07-15T21:53:19.071Z,66.60
2017-07-15T21:55:46.036Z,66.50
2017-07-15T21:58:12.924Z,66.70
2017-07-15T22:00:39.806Z,67.10
2017-07-15T22:03:06.720Z,67.40
2017-07-15T22:05:33.610Z,67.30
2017-07-15T22:08:00.578Z,67.40
2017-07-15T22:10:27.910Z,68.10
2017-07-15T22:12:54.867Z,68.10
2017-07-15T22:15:22.217Z,67.30
2017-07-15T22:17:49.143Z,67.20
2017-07-15T22:20:16.030Z,67.00
2017-07-15T22:22:43.365Z,66.70
2017-07-15T22:25:10.290Z,66.70
2017-07-15T22:27:37.267Z,67.00
2017-07-15T22:30:04.616Z,66.90
2017-07-15T22:32:31.539Z,66.90
2017-07-15T22:34:58.462Z,67.10
2017-07-15T22:37:25.354Z,67.20
2017-07-15T22:39:52.246Z,67.60
2017-07-15T22:42:19.248Z,67.50
2017-07-15T22:44:46.606Z,67.50
2017-07-15T22:47:13.890Z,67.60
2017-07-15T22:49:40.773Z,67.60
2017-07-15T22:52:07.750Z,67.80
2017-07-15T22:54:35.044Z,67.80
2017-07-15T22:57:01.953Z,67.80
2017-07-15T22:59:29.284Z,67.80
2017-07-15T23:01:56.262Z,67.80
2017-07-15T23:04:23.547Z,68.20
2017-07-15T23:06:50.560Z,68.20
2017-07-15T23:09:17.907Z,67.80
2017-07-15T23:11:44.858Z,67.80
2017-07-15T23:14:11.754Z,67.60
2017-07-15T23:16:38.646Z,67.90
2017-07-15T23:19:05.593Z,68.10
2017-07-15T23:21:32.542Z,68.00
2017-07-15T23:23:59.425Z,68.10
2017-07-15T23:26:26.350Z,68.00
2017-07-15T23:28:53.633Z,68.30
2017-07-15T23:31:20.532Z,68.30
2017-07-15T23:33:47.882Z,68.30
2017-07-15T23:36:14.839Z,68.30
2017-07-15T23:38:42.121Z,68.50
2017-07-15T23:41:09.038Z,68.50
2017-07-15T23:43:36.391Z,69.10
2017-07-15T23:46:03.746Z,69.00
2017-07-15T23:48:30.694Z,69.00
2017-07-15T23:50:58.046Z,68.70
2017-07-15T23:53:24.921Z,68.70
2017-07-15T23:55:51.838Z,68.80
2017-07-15T23:58:19.194Z,68.90
